createdAt,value
2022-09-12T00:01:05.721Z,98.70
2022-09-12T00:04:07.382Z,98.70
2022-09-12T00:07:08.913Z,98.70
2022-09-12T00:10:10.511Z,98.70
2022-09-12T00:13:16.366Z,99.30
2022-09-12T00:16:21.310Z,99.40
2022-09-12T00:19:23.079Z,98.90
2022-09-12T00:22:24.648Z,99.00
2022-09-12T00:25:26.364Z,99.00
2022-09-12T00:28:27.989Z,98.90
2022-09-12T00:31:29.762Z,98.80
2022-09-12T00:34:31.677Z,99.00
2022-09-12T00:37:35.153Z,99.60
2022-09-12T00:40:36.856Z,99.00
2022-09-12T00:43:45.117Z,98.90
2022-09-12T00:47:28.526Z,98.10
2022-09-12T00:50:32.430Z,98.90
2022-09-12T00:53:34.321Z,98.90
2022-09-12T00:56:38.860Z,99.30
2022-09-12T00:59:47.000Z,99.00
2022-09-12T01:03:01.816Z,99.20
2022-09-12T01:06:13.867Z,99.70
2022-09-12T01:09:19.345Z,98.40
2022-09-12T01:12:21.304Z,99.20
2022-09-12T01:15:23.070Z,99.70
2022-09-12T01:18:45.384Z,99.20
2022-09-12T01:22:04.998Z,98.50
2022-09-12T01:26:02.686Z,98.60
2022-09-12T01:29:33.800Z,98.40
2022-09-12T01:32:52.692Z,98.40
2022-09-12T01:36:07.236Z,98.40
2022-09-12T01:39:26.978Z,99.30
2022-09-12T01:42:35.145Z,98.50
2022-09-12T01:46:09.565Z,99.60
2022-09-12T01:49:21.865Z,99.60
2022-09-12T01:52:33.214Z,99.40
2022-09-12T01:55:40.474Z,98.40
2022-09-12T01:59:05.344Z,99.40
2022-09-12T02:02:35.986Z,99.40
2022-09-12T02:05:44.823Z,98.80
2022-09-12T02:08:54.376Z,99.40
2022-09-12T02:12:00.539Z,99.40
2022-09-12T02:15:07.259Z,99.50
2022-09-12T02:18:14.337Z,99.40
2022-09-12T02:21:18.356Z,99.50
2022-09-12T02:24:22.559Z,99.60
2022-09-12T02:27:30.355Z,99.60
2022-09-12T02:30:42.055Z,99.60
2022-09-12T02:34:17.017Z,99.50
2022-09-12T02:37:25.533Z,98.90
2022-09-12T02:40:27.795Z,99.40
2022-09-12T02:43:29.432Z,99.50
2022-09-12T02:46:46.677Z,99.40
2022-09-12T02:49:49.113Z,98.70
2022-09-12T02:52:53.709Z,99.60
2022-09-12T02:55:55.388Z,99.60
2022-09-12T02:59:06.159Z,99.50
2022-09-12T03:02:20.025Z,98.90
2022-09-12T03:05:31.563Z,98.60
2022-09-12T03:08:35.925Z,99.70
2022-09-12T03:11:40.209Z,98.90
2022-09-12T03:15:23.309Z,98.80
2022-09-12T03:18:51.278Z,99.10
2022-09-12T03:22:20.828Z,99.10
2022-09-12T03:25:32.416Z,99.00
2022-09-12T03:28:35.889Z,99.80
2022-09-12T03:31:39.264Z,99.60
2022-09-12T03:34:40.832Z,99.60
2022-09-12T03:37:42.854Z,99.50
2022-09-12T03:40:44.673Z,99.60
2022-09-12T03:43:47.384Z,99.60
2022-09-12T03:46:48.933Z,99.60
2022-09-12T03:49:50.491Z,99.60
2022-09-12T03:52:52.106Z,99.60
2022-09-12T03:55:53.649Z,99.70
2022-09-12T03:58:55.289Z,99.70
2022-09-12T04:01:56.950Z,99.70
2022-09-12T04:04:58.508Z,99.80
2022-09-12T04:08:00.042Z,99.80
2022-09-12T04:11:09.797Z,99.90
2022-09-12T04:14:11.457Z,99.90
2022-09-12T04:17:14.082Z,99.70
2022-09-12T04:20:15.641Z,99.90
2022-09-12T04:23:17.316Z,99.90
2022-09-12T04:26:21.528Z,99.80
2022-09-12T04:29:23.101Z,99.90
2022-09-12T04:32:24.678Z,99.80
2022-09-12T04:35:26.792Z,99.90
2022-09-12T04:38:28.657Z,99.90
2022-09-12T04:41:36.043Z,99.90
2022-09-12T04:44:37.659Z,99.10
2022-09-12T04:47:39.242Z,99.90
2022-09-12T04:50:40.825Z,99.90
2022-09-12T04:53:42.995Z,99.90
2022-09-12T04:56:47.225Z,99.90
2022-09-12T04:59:48.840Z,99.90
2022-09-12T05:02:50.365Z,99.90
2022-09-12T05:05:56.248Z,99.90
2022-09-12T05:08:59.140Z,99.90
2022-09-12T05:12:05.363Z,99.90
2022-09-12T05:15:08.095Z,99.90
2022-09-12T05:18:09.652Z,99.70
2022-09-12T05:21:13.996Z,99.90
2022-09-12T05:24:15.711Z,99.90
2022-09-12T05:27:17.262Z,99.90
2022-09-12T05:30:18.796Z,99.90
2022-09-12T05:33:24.938Z,99.90
2022-09-12T05:36:30.291Z,99.90
2022-09-12T05:39:31.832Z,99.90
2022-09-12T05:42:33.556Z,99.90
2022-09-12T05:45:35.116Z,99.80
2022-09-12T05:48:37.744Z,99.90
2022-09-12T05:51:42.469Z,99.90
2022-09-12T05:54:44.069Z,99.90
2022-09-12T05:57:46.170Z,99.60
2022-09-12T06:00:49.503Z,99.60
2022-09-12T06:03:52.645Z,99.70
2022-09-12T06:06:54.244Z,99.40
2022-09-12T06:09:55.816Z,99.50
2022-09-12T06:12:57.423Z,99.30
2022-09-12T06:16:08.736Z,99.40
2022-09-12T06:19:19.523Z,98.80
2022-09-12T06:22:21.015Z,99.70
2022-09-12T06:25:22.580Z,99.20
2022-09-12T06:28:24.702Z,99.50
2022-09-12T06:31:31.661Z,99.40
2022-09-12T06:34:33.823Z,99.40
2022-09-12T06:37:35.401Z,99.40
2022-09-12T06:40:44.575Z,99.20
2022-09-12T06:43:46.277Z,99.90
2022-09-12T06:46:48.744Z,99.00
2022-09-12T06:49:50.857Z,99.10
2022-09-12T06:52:52.451Z,99.00
2022-09-12T06:55:58.227Z,98.80
2022-09-12T06:58:59.978Z,99.20
2022-09-12T07:02:01.572Z,98.80
2022-09-12T07:05:03.338Z,98.60
2022-09-12T07:08:04.911Z,98.60
2022-09-12T07:11:15.842Z,98.80
2022-09-12T07:14:17.443Z,98.50
2022-09-12T07:17:19.180Z,98.30
2022-09-12T07:20:20.741Z,98.10
2022-09-12T07:23:22.270Z,98.00
2022-09-12T07:26:25.702Z,98.00
2022-09-12T07:29:42.630Z,98.40
2022-09-12T07:32:44.197Z,98.50
2022-09-12T07:35:45.788Z,97.90
2022-09-12T07:38:47.471Z,98.60
2022-09-12T07:41:49.191Z,97.80
2022-09-12T07:44:52.447Z,97.60
2022-09-12T07:47:54.717Z,97.70
2022-09-12T07:51:05.650Z,97.70
2022-09-12T07:54:10.472Z,97.50
2022-09-12T07:57:12.037Z,97.40
2022-09-12T08:00:13.983Z,97.30
2022-09-12T08:03:15.714Z,97.20
2022-09-12T08:06:25.529Z,97.20
2022-09-12T08:09:27.034Z,97.20
2022-09-12T08:12:28.856Z,97.30
2022-09-12T08:15:31.363Z,97.30
2022-09-12T08:18:34.539Z,97.20
2022-09-12T08:21:36.088Z,97.70
2022-09-12T08:24:39.547Z,97.10
2022-09-12T08:27:42.944Z,97.20
2022-09-12T08:30:44.579Z,97.20
2022-09-12T08:33:46.484Z,97.10
2022-09-12T08:36:48.384Z,97.10
2022-09-12T08:39:50.023Z,96.90
2022-09-12T08:43:11.247Z,96.70
2022-09-12T08:46:31.679Z,96.30
2022-09-12T08:49:53.327Z,96.40
2022-09-12T08:53:06.730Z,95.10
2022-09-12T08:56:11.581Z,96.10
2022-09-12T08:59:13.649Z,96.00
2022-09-12T09:03:00.004Z,96.00
2022-09-12T09:06:21.082Z,95.10
2022-09-12T09:09:47.607Z,96.30
2022-09-12T09:13:14.497Z,95.00
2022-09-12T09:16:28.206Z,96.10
2022-09-12T09:19:37.507Z,95.30
2022-09-12T09:22:42.133Z,96.10
2022-09-12T09:25:56.853Z,96.30
2022-09-12T09:29:18.143Z,95.70
2022-09-12T09:32:28.034Z,94.70
2022-09-12T09:35:45.717Z,94.90
2022-09-12T09:39:02.909Z,94.20
2022-09-12T09:42:26.000Z,95.40
2022-09-12T09:45:29.407Z,93.90
2022-09-12T09:48:32.648Z,95.10
2022-09-12T09:51:37.441Z,94.50
2022-09-12T09:54:44.446Z,94.70
2022-09-12T09:57:47.063Z,93.80
2022-09-12T10:00:48.882Z,94.50
2022-09-12T10:03:52.518Z,94.30
2022-09-12T10:06:59.807Z,94.30
2022-09-12T10:10:15.289Z,92.60
2022-09-12T10:13:39.501Z,93.20
2022-09-12T10:16:54.880Z,93.70
2022-09-12T10:20:17.339Z,93.60
2022-09-12T10:23:19.525Z,93.70
2022-09-12T10:26:21.906Z,93.80
2022-09-12T10:29:36.167Z,93.70
2022-09-12T10:32:44.664Z,93.20
2022-09-12T10:35:49.643Z,92.90
2022-09-12T10:38:55.112Z,92.70
2022-09-12T10:41:57.140Z,93.10
2022-09-12T10:44:58.680Z,93.20
2022-09-12T10:48:07.332Z,92.50
2022-09-12T10:51:24.547Z,91.40
2022-09-12T10:54:28.553Z,91.50
2022-09-12T10:57:54.944Z,91.10
2022-09-12T11:01:17.770Z,90.00
2022-09-12T11:04:42.150Z,89.40
2022-09-12T11:07:59.116Z,90.00
2022-09-12T11:11:10.194Z,89.30
2022-09-12T11:14:20.689Z,88.80
2022-09-12T11:17:28.367Z,90.30
2022-09-12T11:20:58.118Z,90.50
2022-09-12T11:24:21.536Z,88.90
2022-09-12T11:27:28.933Z,87.90
2022-09-12T11:30:54.098Z,88.00
2022-09-12T11:33:57.867Z,88.10
2022-09-12T11:37:30.569Z,88.80
2022-09-12T11:41:14.123Z,86.80
2022-09-12T11:44:28.646Z,87.40
2022-09-12T11:47:35.083Z,86.20
2022-09-12T11:50:38.642Z,88.90
2022-09-12T11:53:43.162Z,90.80
2022-09-12T11:56:54.491Z,88.60
2022-09-12T12:00:07.071Z,89.10
2022-09-12T12:03:26.965Z,86.30
2022-09-12T12:06:33.480Z,89.20
2022-09-12T12:09:49.090Z,87.20
2022-09-12T12:12:52.862Z,86.80
2022-09-12T12:16:04.053Z,87.20
2022-09-12T12:19:15.107Z,87.90
2022-09-12T12:22:26.631Z,86.70
2022-09-12T12:25:51.986Z,86.00
2022-09-12T12:28:53.664Z,83.70
2022-09-12T12:32:03.921Z,86.00
2022-09-12T12:35:37.696Z,84.50
2022-09-12T12:38:40.933Z,84.60
2022-09-12T12:41:44.297Z,83.60
2022-09-12T12:44:47.123Z,83.40
2022-09-12T12:48:08.337Z,85.10
2022-09-12T12:51:31.940Z,83.60
2022-09-12T12:54:49.564Z,81.20
2022-09-12T12:57:53.777Z,83.50
2022-09-12T13:01:22.999Z,82.60
2022-09-12T13:04:27.878Z,85.00
2022-09-12T13:07:40.605Z,82.50
2022-09-12T13:10:50.579Z,80.60
2022-09-12T13:14:01.680Z,81.10
2022-09-12T13:17:06.767Z,78.30
2022-09-12T13:20:30.113Z,81.20
2022-09-12T13:23:32.837Z,78.20
2022-09-12T13:26:41.186Z,81.50
2022-09-12T13:29:43.106Z,82.20
2022-09-12T13:32:44.902Z,82.10
2022-09-12T13:35:58.261Z,81.30
2022-09-12T13:39:34.066Z,79.20
2022-09-12T13:42:35.620Z,82.80
2022-09-12T13:45:41.742Z,80.80
2022-09-12T13:48:44.212Z,79.90
2022-09-12T13:51:45.958Z,80.40
2022-09-12T13:54:51.674Z,80.40
2022-09-12T13:58:05.133Z,81.50
2022-09-12T14:01:14.769Z,77.70
2022-09-12T14:04:42.769Z,79.70
2022-09-12T14:07:53.259Z,80.70
2022-09-12T14:10:55.051Z,80.70
2022-09-12T14:13:57.737Z,80.60
2022-09-12T14:17:00.514Z,80.30
2022-09-12T14:20:14.012Z,80.50
2022-09-12T14:23:27.594Z,80.10
2022-09-12T14:26:34.195Z,79.40
2022-09-12T14:29:35.828Z,81.50
2022-09-12T14:32:37.603Z,80.50
2022-09-12T14:36:06.958Z,81.00
2022-09-12T14:39:29.043Z,80.20
2022-09-12T14:42:32.433Z,81.00
2022-09-12T14:45:34.059Z,79.70
2022-09-12T14:48:43.082Z,80.60
2022-09-12T14:51:51.449Z,79.20
2022-09-12T14:54:58.329Z,79.10
2022-09-12T14:58:15.068Z,77.00
2022-09-12T15:01:19.656Z,78.70
2022-09-12T15:04:51.977Z,78.10
2022-09-12T15:08:03.319Z,79.80
2022-09-12T15:11:12.788Z,76.70
2022-09-12T15:14:15.354Z,72.70
2022-09-12T15:17:17.271Z,76.50
2022-09-12T15:20:18.941Z,76.80
2022-09-12T15:23:31.445Z,76.50
2022-09-12T15:26:33.133Z,74.30
2022-09-12T15:29:34.720Z,78.10
2022-09-12T15:32:36.809Z,78.00
2022-09-12T15:35:39.034Z,78.30
2022-09-12T15:38:40.621Z,79.00
2022-09-12T15:41:42.399Z,78.40
2022-09-12T15:44:44.678Z,79.00
2022-09-12T15:47:46.388Z,79.20
2022-09-12T15:50:48.398Z,77.50
2022-09-12T15:53:51.578Z,79.00
2022-09-12T15:56:53.160Z,78.90
2022-09-12T15:59:54.763Z,78.70
2022-09-12T16:02:56.782Z,78.90
2022-09-12T16:06:01.696Z,79.20
2022-09-12T16:09:08.011Z,78.50
2022-09-12T16:12:09.817Z,81.40
2022-09-12T16:15:29.191Z,77.70
2022-09-12T16:18:30.771Z,78.70
2022-09-12T16:21:32.426Z,78.60
2022-09-12T16:24:33.968Z,79.50
2022-09-12T16:27:36.735Z,78.70
2022-09-12T16:30:38.591Z,78.40
2022-09-12T16:33:40.677Z,79.10
2022-09-12T16:36:42.381Z,78.50
2022-09-12T16:39:44.246Z,78.90
2022-09-12T16:42:46.546Z,78.70
2022-09-12T16:45:48.179Z,80.00
2022-09-12T16:48:52.650Z,80.40
2022-09-12T16:51:54.430Z,79.80
2022-09-12T16:54:56.279Z,79.10
2022-09-12T16:57:57.815Z,79.80
2022-09-12T17:01:04.896Z,79.80
2022-09-12T17:04:06.672Z,78.50
2022-09-12T17:07:08.756Z,80.50
2022-09-12T17:10:10.360Z,80.40
2022-09-12T17:13:11.990Z,80.10
2022-09-12T17:16:13.976Z,80.70
2022-09-12T17:19:22.472Z,80.90
2022-09-12T17:22:24.149Z,80.50
2022-09-12T17:25:27.725Z,81.10
2022-09-12T17:28:29.874Z,81.60
2022-09-12T17:31:31.802Z,81.70
2022-09-12T17:34:33.545Z,81.80
2022-09-12T17:37:36.137Z,82.80
2022-09-12T17:40:58.500Z,82.80
2022-09-12T17:44:00.567Z,82.60
2022-09-12T17:47:04.613Z,83.10
2022-09-12T17:50:30.473Z,83.40
2022-09-12T17:53:28.885Z,83.50
2022-09-12T17:56:32.046Z,83.90
2022-09-12T17:59:33.653Z,84.30
2022-09-12T18:02:35.932Z,84.30
2022-09-12T18:05:45.474Z,84.40
2022-09-12T18:08:47.562Z,86.00
2022-09-12T18:11:49.869Z,83.90
2022-09-12T18:14:51.526Z,84.80
2022-09-12T18:17:53.853Z,85.90
2022-09-12T18:20:55.530Z,85.20
2022-09-12T18:23:59.232Z,85.60
2022-09-12T18:27:02.572Z,85.60
2022-09-12T18:30:20.619Z,85.70
2022-09-12T18:33:24.203Z,85.70
2022-09-12T18:36:26.421Z,86.00
2022-09-12T18:39:30.597Z,86.30
2022-09-12T18:42:32.522Z,86.30
2022-09-12T18:45:34.757Z,86.70
2022-09-12T18:48:36.554Z,86.80
2022-09-12T18:51:40.065Z,87.00
2022-09-12T18:54:41.633Z,87.90
2022-09-12T18:57:43.180Z,87.30
2022-09-12T19:00:47.943Z,86.90
2022-09-12T19:03:49.667Z,87.10
2022-09-12T19:06:51.238Z,87.30
2022-09-12T19:09:53.030Z,87.40
2022-09-12T19:12:54.621Z,87.30
2022-09-12T19:15:56.255Z,87.10
2022-09-12T19:18:58.711Z,87.80
2022-09-12T19:22:00.291Z,87.80
2022-09-12T19:25:02.595Z,88.00
2022-09-12T19:28:04.159Z,87.00
2022-09-12T19:31:07.439Z,87.60
2022-09-12T19:34:10.514Z,87.90
2022-09-12T19:37:12.054Z,87.10
2022-09-12T19:40:13.666Z,86.90
2022-09-12T19:43:15.238Z,86.80
2022-09-12T19:46:21.688Z,86.50
2022-09-12T19:49:23.538Z,87.90
2022-09-12T19:52:25.185Z,84.70
2022-09-12T19:55:26.958Z,85.90
2022-09-12T19:58:29.963Z,85.30
2022-09-12T20:01:32.372Z,85.70
2022-09-12T20:04:33.959Z,85.60
2022-09-12T20:07:35.535Z,85.70
2022-09-12T20:10:37.266Z,85.30
2022-09-12T20:13:39.023Z,85.40
2022-09-12T20:16:40.625Z,85.80
2022-09-12T20:19:42.200Z,85.20
2022-09-12T20:22:43.708Z,86.30
2022-09-12T20:25:45.264Z,85.30
2022-09-12T20:28:46.970Z,85.10
2022-09-12T20:31:48.685Z,85.60
2022-09-12T20:34:50.525Z,84.80
2022-09-12T20:37:52.092Z,85.90
2022-09-12T20:40:53.650Z,84.80
2022-09-12T20:43:56.710Z,84.30
2022-09-12T20:46:58.399Z,84.40
2022-09-12T20:49:59.976Z,84.20
2022-09-12T20:53:01.617Z,84.00
2022-09-12T20:56:05.251Z,84.10
2022-09-12T20:59:10.340Z,84.60
2022-09-12T21:02:15.557Z,83.70
2022-09-12T21:05:17.691Z,83.70
2022-09-12T21:08:19.283Z,84.00
2022-09-12T21:11:21.000Z,84.00
2022-09-12T21:14:22.704Z,84.00
2022-09-12T21:17:24.464Z,84.50
2022-09-12T21:20:26.027Z,83.60
2022-09-12T21:23:28.517Z,85.00
2022-09-12T21:26:30.415Z,84.80
2022-09-12T21:29:31.936Z,84.90
2022-09-12T21:32:35.841Z,84.60
2022-09-12T21:35:37.809Z,85.70
2022-09-12T21:38:39.434Z,84.70
2022-09-12T21:41:41.009Z,84.90
2022-09-12T21:44:42.635Z,84.80
2022-09-12T21:47:44.486Z,84.90
2022-09-12T21:50:50.429Z,85.60
2022-09-12T21:53:51.981Z,84.90
2022-09-12T21:56:53.827Z,85.00
2022-09-12T21:59:55.361Z,85.90
2022-09-12T22:02:56.945Z,85.20
2022-09-12T22:06:00.490Z,85.10
2022-09-12T22:09:02.245Z,85.10
2022-09-12T22:12:04.029Z,85.10
2022-09-12T22:15:22.781Z,85.70
2022-09-12T22:18:27.359Z,85.20
2022-09-12T22:21:29.684Z,85.70
2022-09-12T22:24:44.079Z,86.50
2022-09-12T22:27:48.693Z,86.80
2022-09-12T22:30:50.722Z,87.10
2022-09-12T22:33:56.507Z,87.00
2022-09-12T22:36:58.849Z,86.30
2022-09-12T22:40:02.203Z,87.80
2022-09-12T22:43:07.301Z,87.30
2022-09-12T23:05:31.540Z,87.10
2022-09-12T23:15:15.153Z,89.40
2022-09-12T23:18:16.760Z,87.20
2022-09-12T23:21:20.420Z,87.10
2022-09-12T23:24:22.363Z,88.30
2022-09-12T23:27:27.285Z,88.80
2022-09-12T23:30:29.053Z,88.00
2022-09-12T23:33:32.026Z,87.00
2022-09-12T23:36:34.175Z,87.00
2022-09-12T23:39:35.857Z,88.90
2022-09-12T23:42:37.534Z,88.70
2022-09-12T23:45:39.213Z,88.30
2022-09-12T23:48:41.301Z,86.80
2022-09-12T23:51:42.953Z,88.20
2022-09-12T23:54:44.552Z,88.40
2022-09-12T23:57:46.145Z,87.40
